sensor_id;sensor_type;location;lat;lon;timestamp;P1;durP1;ratioP1;P2;durP2;ratioP2
24745;SDS011;12845;52.042;6.838;2023-07-20T00:00:49;10.90;;;7.70;;
24745;SDS011;12845;52.042;6.838;2023-07-20T00:03:18;8.77;;;6.63;;
24745;SDS011;12845;52.042;6.838;2023-07-20T00:05:48;11.88;;;8.27;;
24745;SDS011;12845;52.042;6.838;2023-07-20T00:08:14;12.07;;;8.27;;
24745;SDS011;12845;52.042;6.838;2023-07-20T00:10:40;10.35;;;7.05;;
24745;SDS011;12845;52.042;6.838;2023-07-20T00:13:06;12.07;;;7.75;;
24745;SDS011;12845;52.042;6.838;2023-07-20T00:15:32;10.23;;;7.13;;
24745;SDS011;12845;52.042;6.838;2023-07-20T00:17:57;15.40;;;7.97;;
24745;SDS011;12845;52.042;6.838;2023-07-20T00:20:23;11.98;;;7.38;;
24745;SDS011;12845;52.042;6.838;2023-07-20T00:22:50;10.38;;;7.53;;
24745;SDS011;12845;52.042;6.838;2023-07-20T00:25:16;10.70;;;6.95;;
24745;SDS011;12845;52.042;6.838;2023-07-20T00:27:42;9.88;;;7.72;;
24745;SDS011;12845;52.042;6.838;2023-07-20T00:30:07;12.90;;;8.38;;
24745;SDS011;12845;52.042;6.838;2023-07-20T00:32:33;11.75;;;8.48;;
24745;SDS011;12845;52.042;6.838;2023-07-20T00:34:58;9.65;;;8.13;;
24745;SDS011;12845;52.042;6.838;2023-07-20T00:37:23;11.02;;;8.20;;
24745;SDS011;12845;52.042;6.838;2023-07-20T00:39:49;11.57;;;7.88;;
24745;SDS011;12845;52.042;6.838;2023-07-20T00:42:14;11.10;;;8.40;;
24745;SDS011;12845;52.042;6.838;2023-07-20T00:44:39;12.43;;;8.18;;
24745;SDS011;12845;52.042;6.838;2023-07-20T00:47:05;13.85;;;7.68;;
24745;SDS011;12845;52.042;6.838;2023-07-20T00:49:31;10.05;;;8.38;;
24745;SDS011;12845;52.042;6.838;2023-07-20T00:51:57;12.55;;;9.55;;
24745;SDS011;12845;52.042;6.838;2023-07-20T00:54:24;10.82;;;8.40;;
24745;SDS011;12845;52.042;6.838;2023-07-20T00:56:50;14.48;;;9.30;;
24745;SDS011;12845;52.042;6.838;2023-07-20T00:59:18;11.07;;;9.63;;
24745;SDS011;12845;52.042;6.838;2023-07-20T01:01:43;13.15;;;9.75;;
24745;SDS011;12845;52.042;6.838;2023-07-20T01:04:09;9.07;;;8.15;;
24745;SDS011;12845;52.042;6.838;2023-07-20T01:09:19;9.50;;;8.10;;
24745;SDS011;12845;52.042;6.838;2023-07-20T01:12:02;10.60;;;8.93;;
24745;SDS011;12845;52.042;6.838;2023-07-20T01:14:33;11.60;;;9.55;;
24745;SDS011;12845;52.042;6.838;2023-07-20T01:17:00;10.55;;;8.63;;
24745;SDS011;12845;52.042;6.838;2023-07-20T01:19:25;12.27;;;9.18;;
24745;SDS011;12845;52.042;6.838;2023-07-20T01:21:53;10.77;;;7.90;;
24745;SDS011;12845;52.042;6.838;2023-07-20T01:31:52;9.90;;;7.75;;
24745;SDS011;12845;52.042;6.838;2023-07-20T01:34:20;10.75;;;7.65;;
24745;SDS011;12845;52.042;6.838;2023-07-20T01:36:48;11.33;;;7.93;;
24745;SDS011;12845;52.042;6.838;2023-07-20T01:39:15;10.55;;;7.43;;
24745;SDS011;12845;52.042;6.838;2023-07-20T01:41:42;10.90;;;8.02;;
24745;SDS011;12845;52.042;6.838;2023-07-20T01:44:08;9.30;;;7.00;;
24745;SDS011;12845;52.042;6.838;2023-07-20T01:46:33;10.93;;;7.65;;
24745;SDS011;12845;52.042;6.838;2023-07-20T01:48:58;11.15;;;8.27;;
24745;SDS011;12845;52.042;6.838;2023-07-20T01:51:24;10.10;;;7.50;;
24745;SDS011;12845;52.042;6.838;2023-07-20T01:53:49;11.27;;;8.02;;
24745;SDS011;12845;52.042;6.838;2023-07-20T01:56:15;10.48;;;8.00;;
24745;SDS011;12845;52.042;6.838;2023-07-20T01:58:40;10.90;;;8.15;;
24745;SDS011;12845;52.042;6.838;2023-07-20T02:01:05;10.35;;;8.02;;
24745;SDS011;12845;52.042;6.838;2023-07-20T02:03:31;12.63;;;8.95;;
24745;SDS011;12845;52.042;6.838;2023-07-20T02:05:57;12.10;;;8.98;;
24745;SDS011;12845;52.042;6.838;2023-07-20T02:08:22;12.43;;;9.25;;
24745;SDS011;12845;52.042;6.838;2023-07-20T02:10:48;12.48;;;9.45;;
24745;SDS011;12845;52.042;6.838;2023-07-20T02:13:14;13.57;;;10.05;;
24745;SDS011;12845;52.042;6.838;2023-07-20T02:15:40;13.25;;;9.80;;
24745;SDS011;12845;52.042;6.838;2023-07-20T02:18:06;16.48;;;10.40;;
24745;SDS011;12845;52.042;6.838;2023-07-20T02:20:32;13.63;;;10.77;;
24745;SDS011;12845;52.042;6.838;2023-07-20T02:22:57;13.77;;;10.65;;
24745;SDS011;12845;52.042;6.838;2023-07-20T02:25:22;14.20;;;10.25;;
24745;SDS011;12845;52.042;6.838;2023-07-20T02:27:48;16.05;;;10.82;;
24745;SDS011;12845;52.042;6.838;2023-07-20T02:30:13;12.93;;;10.25;;
24745;SDS011;12845;52.042;6.838;2023-07-20T02:32:39;13.63;;;10.75;;
24745;SDS011;12845;52.042;6.838;2023-07-20T02:35:04;16.23;;;11.68;;
24745;SDS011;12845;52.042;6.838;2023-07-20T02:37:31;15.52;;;11.30;;
24745;SDS011;12845;52.042;6.838;2023-07-20T02:39:56;14.45;;;11.00;;
24745;SDS011;12845;52.042;6.838;2023-07-20T02:42:22;16.58;;;11.32;;
24745;SDS011;12845;52.042;6.838;2023-07-20T02:44:49;16.08;;;12.27;;
24745;SDS011;12845;52.042;6.838;2023-07-20T02:47:14;14.60;;;10.38;;
24745;SDS011;12845;52.042;6.838;2023-07-20T02:49:39;14.80;;;10.55;;
24745;SDS011;12845;52.042;6.838;2023-07-20T02:52:05;12.50;;;9.65;;
24745;SDS011;12845;52.042;6.838;2023-07-20T02:54:30;13.48;;;10.00;;
24745;SDS011;12845;52.042;6.838;2023-07-20T02:56:56;13.32;;;9.70;;
24745;SDS011;12845;52.042;6.838;2023-07-20T02:59:21;12.55;;;9.68;;
24745;SDS011;12845;52.042;6.838;2023-07-20T03:01:47;11.95;;;9.85;;
24745;SDS011;12845;52.042;6.838;2023-07-20T03:04:12;10.25;;;8.68;;
24745;SDS011;12845;52.042;6.838;2023-07-20T03:06:38;11.07;;;9.00;;
24745;SDS011;12845;52.042;6.838;2023-07-20T03:09:03;10.77;;;8.73;;
24745;SDS011;12845;52.042;6.838;2023-07-20T03:11:29;10.05;;;7.53;;
24745;SDS011;12845;52.042;6.838;2023-07-20T03:13:54;10.00;;;8.23;;
24745;SDS011;12845;52.042;6.838;2023-07-20T03:16:19;11.15;;;8.52;;
24745;SDS011;12845;52.042;6.838;2023-07-20T03:18:45;11.90;;;8.52;;
24745;SDS011;12845;52.042;6.838;2023-07-20T03:21:11;10.18;;;7.53;;
24745;SDS011;12845;52.042;6.838;2023-07-20T03:23:37;11.63;;;8.70;;
24745;SDS011;12845;52.042;6.838;2023-07-20T03:26:03;9.85;;;7.70;;
24745;SDS011;12845;52.042;6.838;2023-07-20T03:28:28;9.23;;;7.45;;
24745;SDS011;12845;52.042;6.838;2023-07-20T03:30:54;10.23;;;7.53;;
24745;SDS011;12845;52.042;6.838;2023-07-20T03:33:21;11.73;;;7.50;;
24745;SDS011;12845;52.042;6.838;2023-07-20T03:35:47;10.45;;;7.63;;
24745;SDS011;12845;52.042;6.838;2023-07-20T03:38:13;10.00;;;7.43;;
24745;SDS011;12845;52.042;6.838;2023-07-20T03:40:38;10.32;;;8.05;;
24745;SDS011;12845;52.042;6.838;2023-07-20T03:43:03;10.85;;;8.20;;
24745;SDS011;12845;52.042;6.838;2023-07-20T03:45:29;10.68;;;7.40;;
24745;SDS011;12845;52.042;6.838;2023-07-20T03:47:54;10.98;;;7.88;;
24745;SDS011;12845;52.042;6.838;2023-07-20T03:50:19;10.13;;;7.97;;
24745;SDS011;12845;52.042;6.838;2023-07-20T03:52:45;10.02;;;7.70;;
24745;SDS011;12845;52.042;6.838;2023-07-20T03:55:10;9.98;;;7.97;;
24745;SDS011;12845;52.042;6.838;2023-07-20T03:57:35;11.35;;;8.38;;
24745;SDS011;12845;52.042;6.838;2023-07-20T04:00:01;11.05;;;8.75;;
24745;SDS011;12845;52.042;6.838;2023-07-20T04:02:26;12.00;;;9.05;;
24745;SDS011;12845;52.042;6.838;2023-07-20T04:04:52;10.25;;;7.88;;
24745;SDS011;12845;52.042;6.838;2023-07-20T04:07:17;10.23;;;7.85;;
24745;SDS011;12845;52.042;6.838;2023-07-20T04:09:42;11.15;;;8.73;;
24745;SDS011;12845;52.042;6.838;2023-07-20T04:12:08;11.07;;;8.85;;
24745;SDS011;12845;52.042;6.838;2023-07-20T04:14:33;10.70;;;8.65;;
24745;SDS011;12845;52.042;6.838;2023-07-20T04:16:59;11.38;;;9.40;;
24745;SDS011;12845;52.042;6.838;2023-07-20T04:19:25;16.67;;;9.55;;
24745;SDS011;12845;52.042;6.838;2023-07-20T04:21:51;11.90;;;9.57;;
24745;SDS011;12845;52.042;6.838;2023-07-20T04:24:16;11.60;;;9.57;;
24745;SDS011;12845;52.042;6.838;2023-07-20T04:26:41;15.00;;;9.82;;
24745;SDS011;12845;52.042;6.838;2023-07-20T04:29:07;13.32;;;9.05;;
24745;SDS011;12845;52.042;6.838;2023-07-20T04:31:32;12.98;;;9.52;;
24745;SDS011;12845;52.042;6.838;2023-07-20T04:33:58;12.20;;;9.25;;
24745;SDS011;12845;52.042;6.838;2023-07-20T04:36:23;14.95;;;10.07;;
24745;SDS011;12845;52.042;6.838;2023-07-20T04:38:49;11.85;;;9.73;;
24745;SDS011;12845;52.042;6.838;2023-07-20T04:41:14;12.90;;;10.27;;
24745;SDS011;12845;52.042;6.838;2023-07-20T04:43:43;12.98;;;9.93;;
24745;SDS011;12845;52.042;6.838;2023-07-20T04:48:34;12.52;;;10.30;;
24745;SDS011;12845;52.042;6.838;2023-07-20T04:51:00;13.23;;;9.15;;
24745;SDS011;12845;52.042;6.838;2023-07-20T04:53:25;11.68;;;9.05;;
24745;SDS011;12845;52.042;6.838;2023-07-20T04:55:50;13.23;;;9.65;;
24745;SDS011;12845;52.042;6.838;2023-07-20T04:58:17;14.50;;;10.05;;
24745;SDS011;12845;52.042;6.838;2023-07-20T05:00:43;15.32;;;10.73;;
24745;SDS011;12845;52.042;6.838;2023-07-20T05:03:09;11.85;;;9.57;;
24745;SDS011;12845;52.042;6.838;2023-07-20T05:05:34;13.52;;;10.13;;
24745;SDS011;12845;52.042;6.838;2023-07-20T05:07:59;11.00;;;9.68;;
24745;SDS011;12845;52.042;6.838;2023-07-20T05:10:25;11.07;;;9.30;;
24745;SDS011;12845;52.042;6.838;2023-07-20T05:12:50;10.65;;;9.35;;
24745;SDS011;12845;52.042;6.838;2023-07-20T05:15:16;13.57;;;9.50;;
24745;SDS011;12845;52.042;6.838;2023-07-20T05:17:41;12.07;;;8.95;;
24745;SDS011;12845;52.042;6.838;2023-07-20T05:20:07;10.57;;;8.52;;
24745;SDS011;12845;52.042;6.838;2023-07-20T05:22:35;11.15;;;8.43;;
24745;SDS011;12845;52.042;6.838;2023-07-20T05:25:04;10.73;;;7.93;;
24745;SDS011;12845;52.042;6.838;2023-07-20T05:27:34;10.05;;;8.02;;
24745;SDS011;12845;52.042;6.838;2023-07-20T05:30:01;10.50;;;8.68;;
24745;SDS011;12845;52.042;6.838;2023-07-20T05:32:26;10.38;;;7.90;;
24745;SDS011;12845;52.042;6.838;2023-07-20T05:34:52;10.38;;;8.00;;
24745;SDS011;12845;52.042;6.838;2023-07-20T05:37:19;10.65;;;8.00;;
24745;SDS011;12845;52.042;6.838;2023-07-20T05:39:44;9.23;;;7.35;;
24745;SDS011;12845;52.042;6.838;2023-07-20T05:42:10;9.95;;;7.53;;
24745;SDS011;12845;52.042;6.838;2023-07-20T05:44:35;11.10;;;7.10;;
24745;SDS011;12845;52.042;6.838;2023-07-20T05:47:00;9.55;;;7.28;;
24745;SDS011;12845;52.042;6.838;2023-07-20T05:49:27;9.27;;;7.47;;
24745;SDS011;12845;52.042;6.838;2023-07-20T05:51:53;9.55;;;7.03;;
24745;SDS011;12845;52.042;6.838;2023-07-20T05:54:19;8.50;;;6.88;;
24745;SDS011;12845;52.042;6.838;2023-07-20T05:56:45;8.52;;;7.00;;
24745;SDS011;12845;52.042;6.838;2023-07-20T05:59:10;9.60;;;6.63;;
24745;SDS011;12845;52.042;6.838;2023-07-20T06:01:36;7.30;;;5.85;;
24745;SDS011;12845;52.042;6.838;2023-07-20T06:04:01;7.88;;;6.28;;
24745;SDS011;12845;52.042;6.838;2023-07-20T06:06:28;8.68;;;6.60;;
24745;SDS011;12845;52.042;6.838;2023-07-20T06:08:53;8.10;;;5.80;;
24745;SDS011;12845;52.042;6.838;2023-07-20T06:11:19;8.40;;;6.03;;
24745;SDS011;12845;52.042;6.838;2023-07-20T06:13:45;6.72;;;5.47;;
24745;SDS011;12845;52.042;6.838;2023-07-20T06:16:10;6.75;;;5.40;;
24745;SDS011;12845;52.042;6.838;2023-07-20T06:18:36;6.35;;;5.38;;
24745;SDS011;12845;52.042;6.838;2023-07-20T06:21:01;6.72;;;5.28;;
24745;SDS011;12845;52.042;6.838;2023-07-20T06:23:26;6.80;;;4.78;;
24745;SDS011;12845;52.042;6.838;2023-07-20T06:25:52;6.50;;;4.90;;
24745;SDS011;12845;52.042;6.838;2023-07-20T06:28:17;7.45;;;4.22;;
24745;SDS011;12845;52.042;6.838;2023-07-20T06:30:43;7.47;;;4.93;;
24745;SDS011;12845;52.042;6.838;2023-07-20T06:33:08;7.13;;;5.15;;
24745;SDS011;12845;52.042;6.838;2023-07-20T06:35:34;5.78;;;4.63;;
24745;SDS011;12845;52.042;6.838;2023-07-20T06:38:00;6.65;;;4.07;;
24745;SDS011;12845;52.042;6.838;2023-07-20T06:40:29;4.33;;;3.20;;
24745;SDS011;12845;52.042;6.838;2023-07-20T06:42:55;6.07;;;3.95;;
24745;SDS011;12845;52.042;6.838;2023-07-20T06:45:20;5.55;;;3.83;;
24745;SDS011;12845;52.042;6.838;2023-07-20T06:47:46;4.88;;;3.40;;
24745;SDS011;12845;52.042;6.838;2023-07-20T06:50:11;4.10;;;3.22;;
24745;SDS011;12845;52.042;6.838;2023-07-20T06:52:37;4.20;;;3.20;;
24745;SDS011;12845;52.042;6.838;2023-07-20T06:55:04;4.20;;;3.50;;
24745;SDS011;12845;52.042;6.838;2023-07-20T06:57:31;4.55;;;3.42;;
24745;SDS011;12845;52.042;6.838;2023-07-20T06:59:57;4.22;;;3.13;;
24745;SDS011;12845;52.042;6.838;2023-07-20T07:02:22;4.28;;;3.03;;
24745;SDS011;12845;52.042;6.838;2023-07-20T07:04:47;3.80;;;2.90;;
24745;SDS011;12845;52.042;6.838;2023-07-20T07:07:15;5.55;;;3.08;;
24745;SDS011;12845;52.042;6.838;2023-07-20T07:09:41;4.07;;;2.80;;
24745;SDS011;12845;52.042;6.838;2023-07-20T07:12:07;4.43;;;2.88;;
24745;SDS011;12845;52.042;6.838;2023-07-20T07:14:33;4.63;;;3.13;;
24745;SDS011;12845;52.042;6.838;2023-07-20T07:16:59;4.50;;;3.03;;
24745;SDS011;12845;52.042;6.838;2023-07-20T07:19:25;3.78;;;2.50;;
24745;SDS011;12845;52.042;6.838;2023-07-20T07:21:50;3.38;;;2.45;;
24745;SDS011;12845;52.042;6.838;2023-07-20T07:24:16;3.47;;;2.65;;
24745;SDS011;12845;52.042;6.838;2023-07-20T07:26:41;3.20;;;2.05;;
24745;SDS011;12845;52.042;6.838;2023-07-20T07:29:06;2.97;;;2.25;;
24745;SDS011;12845;52.042;6.838;2023-07-20T07:31:33;3.40;;;2.05;;
24745;SDS011;12845;52.042;6.838;2023-07-20T07:34:00;3.08;;;2.15;;
24745;SDS011;12845;52.042;6.838;2023-07-20T07:36:25;3.80;;;2.55;;
24745;SDS011;12845;52.042;6.838;2023-07-20T07:38:51;4.35;;;2.10;;
24745;SDS011;12845;52.042;6.838;2023-07-20T07:41:16;3.58;;;2.10;;
24745;SDS011;12845;52.042;6.838;2023-07-20T07:43:41;2.90;;;2.20;;
24745;SDS011;12845;52.042;6.838;2023-07-20T07:46:07;3.30;;;1.60;;
24745;SDS011;12845;52.042;6.838;2023-07-20T07:48:33;2.83;;;2.00;;
24745;SDS011;12845;52.042;6.838;2023-07-20T07:50:58;4.20;;;2.30;;
24745;SDS011;12845;52.042;6.838;2023-07-20T07:53:23;3.20;;;1.80;;
24745;SDS011;12845;52.042;6.838;2023-07-20T07:55:51;3.15;;;1.42;;
24745;SDS011;12845;52.042;6.838;2023-07-20T07:58:16;1.92;;;1.05;;
24745;SDS011;12845;52.042;6.838;2023-07-20T08:00:42;1.73;;;1.30;;
24745;SDS011;12845;52.042;6.838;2023-07-20T08:03:08;2.53;;;1.67;;
24745;SDS011;12845;52.042;6.838;2023-07-20T08:05:33;2.45;;;1.75;;
24745;SDS011;12845;52.042;6.838;2023-07-20T08:08:00;2.67;;;1.70;;
24745;SDS011;12845;52.042;6.838;2023-07-20T08:10:26;2.85;;;1.83;;
24745;SDS011;12845;52.042;6.838;2023-07-20T08:12:51;2.92;;;1.35;;
24745;SDS011;12845;52.042;6.838;2023-07-20T08:15:17;2.33;;;1.25;;
24745;SDS011;12845;52.042;6.838;2023-07-20T08:17:42;3.13;;;1.30;;
24745;SDS011;12845;52.042;6.838;2023-07-20T08:20:09;2.83;;;1.42;;
24745;SDS011;12845;52.042;6.838;2023-07-20T08:22:37;1.80;;;1.10;;
24745;SDS011;12845;52.042;6.838;2023-07-20T08:25:03;2.70;;;1.30;;
24745;SDS011;12845;52.042;6.838;2023-07-20T08:27:29;3.83;;;1.00;;
24745;SDS011;12845;52.042;6.838;2023-07-20T08:29:54;1.25;;;0.88;;
24745;SDS011;12845;52.042;6.838;2023-07-20T08:32:19;2.00;;;1.00;;
24745;SDS011;12845;52.042;6.838;2023-07-20T08:34:45;2.03;;;1.17;;
24745;SDS011;12845;52.042;6.838;2023-07-20T08:37:10;2.53;;;1.25;;
24745;SDS011;12845;52.042;6.838;2023-07-20T08:39:36;1.90;;;1.10;;
24745;SDS011;12845;52.042;6.838;2023-07-20T08:42:01;2.70;;;1.15;;
24745;SDS011;12845;52.042;6.838;2023-07-20T08:44:29;3.13;;;1.25;;
24745;SDS011;12845;52.042;6.838;2023-07-20T08:47:03;1.35;;;1.00;;
24745;SDS011;12845;52.042;6.838;2023-07-20T08:49:34;2.67;;;1.05;;
24745;SDS011;12845;52.042;6.838;2023-07-20T08:52:00;0.98;;;0.70;;
24745;SDS011;12845;52.042;6.838;2023-07-20T08:54:27;2.63;;;0.70;;
24745;SDS011;12845;52.042;6.838;2023-07-20T08:56:57;2.10;;;0.88;;
24745;SDS011;12845;52.042;6.838;2023-07-20T08:59:26;2.15;;;0.90;;
24745;SDS011;12845;52.042;6.838;2023-07-20T09:01:53;1.25;;;0.80;;
24745;SDS011;12845;52.042;6.838;2023-07-20T09:04:21;1.85;;;0.80;;
24745;SDS011;12845;52.042;6.838;2023-07-20T09:06:47;1.45;;;0.73;;
24745;SDS011;12845;52.042;6.838;2023-07-20T09:09:14;1.88;;;0.80;;
24745;SDS011;12845;52.042;6.838;2023-07-20T09:11:40;1.52;;;0.80;;
24745;SDS011;12845;52.042;6.838;2023-07-20T09:14:06;1.10;;;0.70;;
24745;SDS011;12845;52.042;6.838;2023-07-20T09:16:32;1.85;;;0.80;;
24745;SDS011;12845;52.042;6.838;2023-07-20T09:19:11;1.85;;;0.90;;
24745;SDS011;12845;52.042;6.838;2023-07-20T09:21:37;2.50;;;1.10;;
24745;SDS011;12845;52.042;6.838;2023-07-20T09:24:03;1.77;;;0.70;;
24745;SDS011;12845;52.042;6.838;2023-07-20T09:26:28;4.00;;;0.70;;
24745;SDS011;12845;52.042;6.838;2023-07-20T09:28:54;2.75;;;1.38;;
24745;SDS011;12845;52.042;6.838;2023-07-20T09:31:21;1.15;;;0.70;;
24745;SDS011;12845;52.042;6.838;2023-07-20T09:33:48;1.30;;;0.85;;
24745;SDS011;12845;52.042;6.838;2023-07-20T09:36:14;2.00;;;1.02;;
24745;SDS011;12845;52.042;6.838;2023-07-20T09:38:41;3.22;;;0.80;;
24745;SDS011;12845;52.042;6.838;2023-07-20T09:41:07;1.70;;;0.82;;
24745;SDS011;12845;52.042;6.838;2023-07-20T09:43:36;1.38;;;0.75;;
24745;SDS011;12845;52.042;6.838;2023-07-20T09:46:01;1.30;;;0.70;;
24745;SDS011;12845;52.042;6.838;2023-07-20T09:48:27;1.63;;;0.70;;
24745;SDS011;12845;52.042;6.838;2023-07-20T09:50:53;2.10;;;0.70;;
24745;SDS011;12845;52.042;6.838;2023-07-20T09:53:19;1.25;;;0.82;;
24745;SDS011;12845;52.042;6.838;2023-07-20T09:55:45;1.30;;;0.70;;
24745;SDS011;12845;52.042;6.838;2023-07-20T09:58:14;1.75;;;0.70;;
24745;SDS011;12845;52.042;6.838;2023-07-20T10:00:41;3.00;;;0.70;;
24745;SDS011;12845;52.042;6.838;2023-07-20T10:03:12;1.45;;;0.80;;
24745;SDS011;12845;52.042;6.838;2023-07-20T10:05:43;1.65;;;0.80;;
24745;SDS011;12845;52.042;6.838;2023-07-20T10:08:12;0.80;;;0.60;;
24745;SDS011;12845;52.042;6.838;2023-07-20T10:10:40;1.10;;;0.50;;
24745;SDS011;12845;52.042;6.838;2023-07-20T10:13:08;1.13;;;0.68;;
24745;SDS011;12845;52.042;6.838;2023-07-20T10:15:43;1.35;;;0.60;;
24745;SDS011;12845;52.042;6.838;2023-07-20T10:18:30;1.90;;;0.70;;
24745;SDS011;12845;52.042;6.838;2023-07-20T10:21:00;1.15;;;0.50;;
24745;SDS011;12845;52.042;6.838;2023-07-20T10:23:27;1.10;;;0.50;;
24745;SDS011;12845;52.042;6.838;2023-07-20T10:25:54;0.95;;;0.50;;
24745;SDS011;12845;52.042;6.838;2023-07-20T10:28:20;1.13;;;0.57;;
24745;SDS011;12845;52.042;6.838;2023-07-20T10:30:48;1.40;;;0.60;;
24745;SDS011;12845;52.042;6.838;2023-07-20T10:33:14;1.55;;;0.63;;
24745;SDS011;12845;52.042;6.838;2023-07-20T10:35:51;1.55;;;0.50;;
24745;SDS011;12845;52.042;6.838;2023-07-20T10:38:52;1.67;;;0.60;;
24745;SDS011;12845;52.042;6.838;2023-07-20T10:41:27;1.60;;;0.57;;
24745;SDS011;12845;52.042;6.838;2023-07-20T10:43:58;1.85;;;0.70;;
24745;SDS011;12845;52.042;6.838;2023-07-20T10:49:05;1.10;;;0.50;;
24745;SDS011;12845;52.042;6.838;2023-07-20T10:51:42;1.67;;;0.60;;
24745;SDS011;12845;52.042;6.838;2023-07-20T10:54:54;1.77;;;0.40;;
24745;SDS011;12845;52.042;6.838;2023-07-20T10:56:58;0.70;;;0.35;;
24745;SDS011;12845;52.042;6.838;2023-07-20T11:00:08;0.60;;;0.40;;
24745;SDS011;12845;52.042;6.838;2023-07-20T11:02:45;0.77;;;0.50;;
24745;SDS011;12845;52.042;6.838;2023-07-20T11:08:10;0.98;;;0.40;;
24745;SDS011;12845;52.042;6.838;2023-07-20T11:10:36;0.98;;;0.55;;
24745;SDS011;12845;52.042;6.838;2023-07-20T11:13:18;1.83;;;0.60;;
24745;SDS011;12845;52.042;6.838;2023-07-20T11:16:05;1.48;;;0.50;;
24745;SDS011;12845;52.042;6.838;2023-07-20T11:18:30;1.38;;;0.60;;
24745;SDS011;12845;52.042;6.838;2023-07-20T11:20:58;3.42;;;0.60;;
24745;SDS011;12845;52.042;6.838;2023-07-20T11:23:24;1.02;;;0.50;;
24745;SDS011;12845;52.042;6.838;2023-07-20T11:25:49;3.05;;;0.73;;
24745;SDS011;12845;52.042;6.838;2023-07-20T11:28:15;1.05;;;0.40;;
24745;SDS011;12845;52.042;6.838;2023-07-20T11:30:41;1.00;;;0.40;;
24745;SDS011;12845;52.042;6.838;2023-07-20T11:33:09;1.63;;;0.40;;
24745;SDS011;12845;52.042;6.838;2023-07-20T11:35:35;1.48;;;0.52;;
24745;SDS011;12845;52.042;6.838;2023-07-20T11:38:06;1.25;;;0.50;;
24745;SDS011;12845;52.042;6.838;2023-07-20T11:40:32;1.33;;;0.50;;
24745;SDS011;12845;52.042;6.838;2023-07-20T11:42:57;1.02;;;0.40;;
24745;SDS011;12845;52.042;6.838;2023-07-20T11:45:23;1.35;;;0.30;;
24745;SDS011;12845;52.042;6.838;2023-07-20T11:47:49;2.15;;;0.30;;
24745;SDS011;12845;52.042;6.838;2023-07-20T11:50:14;2.17;;;0.30;;
24745;SDS011;12845;52.042;6.838;2023-07-20T11:52:41;1.60;;;0.30;;
24745;SDS011;12845;52.042;6.838;2023-07-20T11:55:07;0.68;;;0.30;;
24745;SDS011;12845;52.042;6.838;2023-07-20T11:57:33;0.93;;;0.40;;
24745;SDS011;12845;52.042;6.838;2023-07-20T12:00:00;0.30;;;0.20;;
24745;SDS011;12845;52.042;6.838;2023-07-20T12:02:34;0.60;;;0.38;;
24745;SDS011;12845;52.042;6.838;2023-07-20T12:04:59;0.90;;;0.30;;
24745;SDS011;12845;52.042;6.838;2023-07-20T12:07:26;1.98;;;0.40;;
24745;SDS011;12845;52.042;6.838;2023-07-20T12:10:05;1.70;;;0.50;;
24745;SDS011;12845;52.042;6.838;2023-07-20T12:12:33;0.90;;;0.30;;
24745;SDS011;12845;52.042;6.838;2023-07-20T12:15:12;1.15;;;0.50;;
24745;SDS011;12845;52.042;6.838;2023-07-20T12:17:41;1.05;;;0.32;;
24745;SDS011;12845;52.042;6.838;2023-07-20T12:22:38;4.57;;;0.57;;
24745;SDS011;12845;52.042;6.838;2023-07-20T12:25:07;2.83;;;0.35;;
24745;SDS011;12845;52.042;6.838;2023-07-20T12:27:35;0.73;;;0.30;;
24745;SDS011;12845;52.042;6.838;2023-07-20T12:30:03;0.40;;;0.30;;
24745;SDS011;12845;52.042;6.838;2023-07-20T12:32:29;1.88;;;0.50;;
24745;SDS011;12845;52.042;6.838;2023-07-20T12:34:55;2.85;;;0.60;;
24745;SDS011;12845;52.042;6.838;2023-07-20T12:37:20;1.55;;;0.55;;
24745;SDS011;12845;52.042;6.838;2023-07-20T12:39:45;0.60;;;0.40;;
24745;SDS011;12845;52.042;6.838;2023-07-20T12:42:12;1.83;;;0.50;;
24745;SDS011;12845;52.042;6.838;2023-07-20T12:44:40;0.87;;;0.40;;
24745;SDS011;12845;52.042;6.838;2023-07-20T12:47:05;0.70;;;0.40;;
24745;SDS011;12845;52.042;6.838;2023-07-20T12:49:31;0.63;;;0.40;;
24745;SDS011;12845;52.042;6.838;2023-07-20T12:52:05;1.02;;;0.40;;
24745;SDS011;12845;52.042;6.838;2023-07-20T12:54:33;0.68;;;0.50;;
24745;SDS011;12845;52.042;6.838;2023-07-20T12:56:58;2.13;;;0.60;;
24745;SDS011;12845;52.042;6.838;2023-07-20T12:59:24;1.35;;;0.50;;
24745;SDS011;12845;52.042;6.838;2023-07-20T13:01:49;1.20;;;0.50;;
24745;SDS011;12845;52.042;6.838;2023-07-20T13:04:15;1.13;;;0.47;;
24745;SDS011;12845;52.042;6.838;2023-07-20T13:06:40;2.03;;;0.50;;
24745;SDS011;12845;52.042;6.838;2023-07-20T13:09:06;1.10;;;0.45;;
24745;SDS011;12845;52.042;6.838;2023-07-20T13:11:31;0.80;;;0.40;;
24745;SDS011;12845;52.042;6.838;2023-07-20T13:13:57;1.05;;;0.45;;
24745;SDS011;12845;52.042;6.838;2023-07-20T13:16:25;1.48;;;0.40;;
24745;SDS011;12845;52.042;6.838;2023-07-20T13:18:50;0.82;;;0.50;;
24745;SDS011;12845;52.042;6.838;2023-07-20T13:21:15;0.85;;;0.40;;
24745;SDS011;12845;52.042;6.838;2023-07-20T13:23:42;1.13;;;0.40;;
24745;SDS011;12845;52.042;6.838;2023-07-20T13:26:07;1.60;;;0.60;;
24745;SDS011;12845;52.042;6.838;2023-07-20T13:28:33;2.03;;;0.75;;
24745;SDS011;12845;52.042;6.838;2023-07-20T13:30:58;0.75;;;0.40;;
24745;SDS011;12845;52.042;6.838;2023-07-20T13:33:24;1.27;;;0.50;;
24745;SDS011;12845;52.042;6.838;2023-07-20T13:35:49;2.58;;;0.50;;
24745;SDS011;12845;52.042;6.838;2023-07-20T13:38:14;1.10;;;0.60;;
24745;SDS011;12845;52.042;6.838;2023-07-20T13:40:40;3.05;;;0.80;;
24745;SDS011;12845;52.042;6.838;2023-07-20T13:43:06;1.85;;;0.70;;
24745;SDS011;12845;52.042;6.838;2023-07-20T13:45:31;1.30;;;0.50;;
24745;SDS011;12845;52.042;6.838;2023-07-20T13:47:56;2.60;;;0.70;;
24745;SDS011;12845;52.042;6.838;2023-07-20T13:50:22;1.27;;;0.60;;
24745;SDS011;12845;52.042;6.838;2023-07-20T13:52:47;1.00;;;0.60;;
24745;SDS011;12845;52.042;6.838;2023-07-20T13:55:12;1.00;;;0.50;;
24745;SDS011;12845;52.042;6.838;2023-07-20T13:57:38;1.23;;;0.50;;
24745;SDS011;12845;52.042;6.838;2023-07-20T14:00:04;1.33;;;0.40;;
24745;SDS011;12845;52.042;6.838;2023-07-20T14:02:33;2.15;;;0.60;;
24745;SDS011;12845;52.042;6.838;2023-07-20T14:04:58;1.10;;;0.60;;
24745;SDS011;12845;52.042;6.838;2023-07-20T14:07:24;2.97;;;0.70;;
24745;SDS011;12845;52.042;6.838;2023-07-20T14:09:50;1.27;;;0.60;;
24745;SDS011;12845;52.042;6.838;2023-07-20T14:12:15;0.45;;;0.38;;
24745;SDS011;12845;52.042;6.838;2023-07-20T14:14:41;2.90;;;0.60;;
24745;SDS011;12845;52.042;6.838;2023-07-20T14:17:06;1.05;;;0.50;;
24745;SDS011;12845;52.042;6.838;2023-07-20T14:19:32;2.28;;;0.60;;
24745;SDS011;12845;52.042;6.838;2023-07-20T14:21:57;1.40;;;0.63;;
24745;SDS011;12845;52.042;6.838;2023-07-20T14:24:24;2.65;;;0.60;;
24745;SDS011;12845;52.042;6.838;2023-07-20T14:26:53;1.42;;;0.57;;
24745;SDS011;12845;52.042;6.838;2023-07-20T14:29:19;0.73;;;0.60;;
24745;SDS011;12845;52.042;6.838;2023-07-20T14:31:45;1.08;;;0.60;;
24745;SDS011;12845;52.042;6.838;2023-07-20T14:34:15;1.67;;;0.60;;
24745;SDS011;12845;52.042;6.838;2023-07-20T14:36:40;1.60;;;0.90;;
24745;SDS011;12845;52.042;6.838;2023-07-20T14:39:06;2.65;;;0.60;;
24745;SDS011;12845;52.042;6.838;2023-07-20T14:41:31;1.27;;;0.68;;
24745;SDS011;12845;52.042;6.838;2023-07-20T14:43:56;1.08;;;0.60;;
24745;SDS011;12845;52.042;6.838;2023-07-20T14:46:22;1.33;;;0.60;;
24745;SDS011;12845;52.042;6.838;2023-07-20T14:48:47;1.20;;;0.70;;
24745;SDS011;12845;52.042;6.838;2023-07-20T14:51:13;1.38;;;0.70;;
24745;SDS011;12845;52.042;6.838;2023-07-20T14:53:38;0.98;;;0.47;;
24745;SDS011;12845;52.042;6.838;2023-07-20T14:56:03;0.93;;;0.50;;
24745;SDS011;12845;52.042;6.838;2023-07-20T14:58:29;1.50;;;0.65;;
24745;SDS011;12845;52.042;6.838;2023-07-20T15:00:54;0.90;;;0.50;;